Yeso, NM

2:49 AM MDT on July 12, 2014 (GMT -0600)
Lake Sumner Village (KNMFORTS2) Elev 4362 ft | 34.62 °N, 104.40 °W | Change Station

Current weather conditions updated 13 seconds ago

Clear
Clear
68.5 °F
Feels Like 68.5 °F
N
1.0
Wind Variable Wind from South
Gusts 4.0 mph

Today is forecast to be nearly the same temperature as yesterday.

Today
High -- | Low -- °F
--% Chance of Precip.
Yesterday
High -- | Low -- °F
Precip. -- in
5:55 AM 8:12 PM
Full, 100% visible
Pressure 30.04 in
Visibility 12.0 miles
Clouds Clear
Dew Point 58 °F
Humidity 70%
Rainfall 0.00 in
Snow Depth Not available.
UV 0 out of 12
Pollen 4.20 out of 12
Air Quality Not available.
Flu Activity Sporadic
METAR K4MR 120756Z AUTO 16009KT 12SM CLR 20/15 A3022 RMK AO2 SLP171 T01990154

More Conditions Fewer Conditions

Pressure 30.04 in
Visibility 12.0 miles
Clouds Clear
Dew Point 58 °F
Humidity 70%
Rainfall 0.00 in
Snow Depth Not available.
UV 0 out of 12
Pollen 4.20 out of 12
Air Quality Not available.
Flu Activity Sporadic
METAR K4MR 120756Z AUTO 16009KT 12SM CLR 20/15 A3022 RMK AO2 SLP171 T01990154

More Conditions Fewer Conditions

10-Day Weather Forecast

Almanac

Astronomy

Jul. 12, 2014 Rise Set
Actual Time 5:55 AM MDT 8:12 PM MDT
Civil Twilight 5:26 AM MDT 8:41 PM MDT
Nautical Twilight 4:51 AM MDT 9:16 PM MDT
Astronomical Twilight 4:12 AM MDT 9:54 PM MDT
Moon 8:21 PM MDT 6:14 AM MDT
Length of Visible Light 15h 14m
Length of Day
14h 16m
Tomorrow will be 0m 58s shorter.
Full, 100% of the Moon is Illuminated
Today
Full
Jul 12
Full
Jul 18
Last Quarter
Jul 26
New
Aug 3
First Quarter

Today's Extremes

State Highs State Lows

Community

WunderPhotos

Upload Photos

1,732,746 photos uploaded!

Nearby

Snow Depth

Station Depth Elevation
Sierra Blanca 1 in 10280 ft
Wesner Springs 0 in 11120 ft
Santa Fe 0 in 11445 ft
Gallegos Peak 0 in 9800 ft
Tolby 0 in 10180 ft

Earthquake Activity

City Distance Mag. Time & Date
No recent earthquake activity has been reported nearby.
Minimum magnitude displayed is 2.5.

Coastal Water Temperatures

Place Temperature
No Stations Reporting

Nearby Weather Stations

Station Location Temp. Dew Point Humidity Wind Precip. Elev Updated Type
Lake Sumner Village, Fort Sumner, NM 68.5 °F 58 °F 70% South  at  1.0 mph 0.00 in / hr 4362 ft 2:48 AM MDT Rapid Fire

Show More Stations Show Fewer Stations